createdAt,value
2022-12-01T00:01:47.795Z,101792.47
2022-12-01T00:04:17.181Z,101797.75
2022-12-01T00:06:47.044Z,101797.88
2022-12-01T00:09:35.478Z,101797.13
2022-12-01T00:12:04.811Z,101802.19
2022-12-01T00:14:34.066Z,101791.47
2022-12-01T00:17:05.102Z,101798.59
2022-12-01T00:19:34.392Z,101788.78
2022-12-01T00:22:03.648Z,101786.94
2022-12-01T00:24:34.871Z,101788.13
2022-12-01T00:27:04.142Z,101787.78
2022-12-01T00:29:33.396Z,101791.00
2022-12-01T00:32:02.764Z,101789.16
2022-12-01T00:34:32.166Z,101782.38
2022-12-01T00:37:01.911Z,101786.81
2022-12-01T00:39:31.439Z,101793.59
2022-12-01T00:42:02.134Z,101788.81
2022-12-01T00:44:31.874Z,101783.91
2022-12-01T00:47:01.155Z,101790.78
2022-12-01T00:49:30.404Z,101798.38
2022-12-01T00:51:59.725Z,101791.41
2022-12-01T00:54:32.291Z,101805.53
2022-12-01T00:57:03.283Z,101787.31
2022-12-01T00:59:32.817Z,101794.22
2022-12-01T01:02:02.662Z,101792.38
2022-12-01T01:04:33.064Z,101801.31
2022-12-01T01:07:02.810Z,101802.69
2022-12-01T01:09:33.596Z,101801.84
2022-12-01T01:12:04.368Z,101804.56
2022-12-01T01:14:33.674Z,101807.97
2022-12-01T01:17:03.117Z,101819.00
2022-12-01T01:19:32.387Z,101821.00
2022-12-01T01:22:01.773Z,101819.63
2022-12-01T01:24:31.234Z,101816.22
2022-12-01T01:27:00.534Z,101813.84
2022-12-01T01:29:31.213Z,101816.81
2022-12-01T01:32:00.450Z,101819.50
2022-12-01T01:34:29.793Z,101817.94
2022-12-01T01:36:59.026Z,101827.50
2022-12-01T01:39:28.334Z,101825.75
2022-12-01T01:41:57.544Z,101833.50
2022-12-01T01:44:50.871Z,101834.84
2022-12-01T01:47:24.670Z,101828.09
2022-12-01T01:49:55.657Z,101834.97
2022-12-01T01:52:25.432Z,101834.97
2022-12-01T01:54:57.093Z,101832.16
2022-12-01T01:57:30.227Z,101831.56
2022-12-01T02:00:05.344Z,101832.88
2022-12-01T02:02:44.928Z,101828.09
2022-12-01T02:05:18.727Z,101828.97
2022-12-01T02:07:49.459Z,101833.63
2022-12-01T02:10:22.783Z,101830.56
2022-12-01T02:13:05.038Z,101828.34
2022-12-01T02:15:42.464Z,101832.53
2022-12-01T02:18:24.977Z,101821.72
2022-12-01T02:21:21.072Z,101824.19
2022-12-01T02:24:27.680Z,101829.94
2022-12-01T02:27:03.940Z,101815.22
2022-12-01T02:30:10.510Z,101824.06
2022-12-01T02:33:06.290Z,101834.47
2022-12-01T02:35:42.815Z,101822.44
2022-12-01T02:38:18.471Z,101830.78
2022-12-01T02:40:53.794Z,101827.47
2022-12-01T02:43:31.577Z,101824.53
2022-12-01T02:46:07.147Z,101826.41
2022-12-01T02:48:41.618Z,101817.19
2022-12-01T02:51:15.819Z,101811.88
2022-12-01T02:53:45.617Z,101807.50
2022-12-01T02:56:16.228Z,101825.41
2022-12-01T02:58:45.595Z,101813.97
2022-12-01T03:01:33.903Z,101813.72
2022-12-01T03:04:25.620Z,101813.38
2022-12-01T03:07:15.636Z,101816.09
2022-12-01T03:09:56.483Z,101822.47
2022-12-01T03:12:35.755Z,101832.28
2022-12-01T03:15:11.427Z,101835.34
2022-12-01T03:17:46.659Z,101823.94
2022-12-01T03:20:24.242Z,101826.63
2022-12-01T03:22:59.510Z,101818.06
2022-12-01T03:25:31.478Z,101824.41
2022-12-01T03:30:56.870Z,101824.91
2022-12-01T03:33:32.992Z,101821.47
2022-12-01T03:36:09.331Z,101822.94
2022-12-01T03:38:40.286Z,101819.88
2022-12-01T03:41:16.051Z,101811.28
2022-12-01T03:43:54.024Z,101818.16
2022-12-01T03:46:33.194Z,101818.28
2022-12-01T03:49:03.942Z,101813.84
2022-12-01T03:51:43.459Z,101810.19
2022-12-01T03:54:19.760Z,101801.72
2022-12-01T03:56:52.610Z,101810.66
2022-12-01T03:59:25.407Z,101821.00
2022-12-01T04:01:54.742Z,101822.94
2022-12-01T04:04:24.050Z,101829.19
2022-12-01T04:06:54.829Z,101821.00
2022-12-01T04:09:24.124Z,101826.41
2022-12-01T04:12:10.960Z,101826.41
2022-12-01T04:14:40.202Z,101824.91
2022-12-01T04:17:09.622Z,101820.72
2022-12-01T04:19:38.974Z,101829.09
2022-12-01T04:22:09.598Z,101827.50
2022-12-01T04:24:39.226Z,101842.44
2022-12-01T04:27:08.570Z,101838.38
2022-12-01T04:29:37.957Z,101848.94
2022-12-01T04:32:07.310Z,101842.59
2022-12-01T04:34:36.553Z,101842.13
2022-12-01T04:37:07.623Z,101839.50
2022-12-01T04:39:38.443Z,101836.31
2022-12-01T04:42:07.732Z,101835.94
2022-12-01T04:44:37.387Z,101829.81
2022-12-01T04:47:07.807Z,101833.75
2022-12-01T04:49:37.509Z,101836.44
2022-12-01T04:52:07.704Z,101834.22
2022-12-01T04:54:38.460Z,101829.31
2022-12-01T04:57:07.722Z,101828.72
2022-12-01T04:59:36.958Z,101834.72
2022-12-01T05:02:06.287Z,101829.81
2022-12-01T05:04:38.832Z,101834.22
2022-12-01T05:07:08.339Z,101822.81
2022-12-01T05:09:39.328Z,101831.19
2022-12-01T05:12:08.775Z,101832.75
2022-12-01T05:14:38.033Z,101836.53
2022-12-01T05:17:07.317Z,101840.22
2022-12-01T05:19:54.048Z,101841.84
2022-12-01T05:22:56.913Z,101843.66
2022-12-01T05:25:14.321Z,101849.81
2022-12-01T05:27:43.800Z,101849.94
2022-12-01T05:30:13.812Z,101846.13
2022-12-01T05:32:43.155Z,101845.50
2022-12-01T05:35:13.007Z,101848.34
2022-12-01T05:37:42.409Z,101850.28
2022-12-01T05:40:14.195Z,101850.91
2022-12-01T05:42:43.511Z,101855.44
2022-12-01T05:45:13.028Z,101852.00
2022-12-01T05:47:42.306Z,101850.66
2022-12-01T05:50:12.342Z,101853.97
2022-12-01T05:52:42.082Z,101854.81
2022-12-01T05:55:11.699Z,101853.13
2022-12-01T05:57:43.239Z,101856.78
2022-12-01T06:00:14.619Z,101859.13
2022-12-01T06:02:43.910Z,101860.47
2022-12-01T06:05:13.243Z,101866.94
2022-12-01T06:07:42.764Z,101865.63
2022-12-01T06:10:13.038Z,101864.38
2022-12-01T06:12:43.801Z,101859.00
2022-12-01T06:15:14.277Z,101862.63
2022-12-01T06:17:43.810Z,101865.63
2022-12-01T06:20:14.070Z,101864.91
2022-12-01T06:22:43.500Z,101878.41
2022-12-01T06:25:12.918Z,101879.16
2022-12-01T06:27:43.631Z,101875.72
2022-12-01T06:30:13.408Z,101865.63
2022-12-01T06:32:42.735Z,101877.97
2022-12-01T06:35:12.003Z,101871.25
2022-12-01T06:37:41.267Z,101874.66
2022-12-01T06:40:11.871Z,101884.72
2022-12-01T06:42:41.717Z,101891.47
2022-12-01T06:45:13.324Z,101884.72
2022-12-01T06:47:42.611Z,101891.59
2022-12-01T06:50:12.503Z,101887.44
2022-12-01T06:52:41.767Z,101890.13
2022-12-01T06:55:11.350Z,101891.84
2022-12-01T06:57:40.907Z,101893.16
2022-12-01T07:00:14.122Z,101898.56
2022-12-01T07:02:43.932Z,101893.78
2022-12-01T07:05:13.453Z,101899.19
2022-12-01T07:07:42.853Z,101902.88
2022-12-01T07:10:14.166Z,101903.09
2022-12-01T07:12:43.440Z,101904.41
2022-12-01T07:15:14.276Z,101901.78
2022-12-01T07:17:43.530Z,101902.88
2022-12-01T07:20:14.112Z,101912.44
2022-12-01T07:22:44.294Z,101913.88
2022-12-01T07:25:14.067Z,101917.59
2022-12-01T07:27:43.429Z,101911.19
2022-12-01T07:30:14.841Z,101918.31
2022-12-01T07:32:44.328Z,101906.78
2022-12-01T07:35:13.677Z,101910.34
2022-12-01T07:37:43.001Z,101915.59
2022-12-01T07:40:14.197Z,101914.13
2022-12-01T07:42:43.661Z,101913.25
2022-12-01T07:45:14.572Z,101912.19
2022-12-01T07:47:44.727Z,101911.09
2022-12-01T07:50:14.172Z,101908.81
2022-12-01T07:52:43.445Z,101921.94
2022-12-01T07:55:12.709Z,101921.53
2022-12-01T07:57:42.034Z,101923.06
2022-12-01T08:00:14.165Z,101922.06
2022-12-01T08:02:43.531Z,101922.81
2022-12-01T08:05:12.950Z,101922.31
2022-12-01T08:07:42.349Z,101921.00
2022-12-01T08:10:12.649Z,101919.56
2022-12-01T08:12:41.968Z,101919.38
2022-12-01T08:15:13.379Z,101922.66
2022-12-01T08:17:42.691Z,101928.41
2022-12-01T08:20:12.860Z,101929.38
2022-12-01T08:22:42.231Z,101932.34
2022-12-01T08:25:11.960Z,101938.13
2022-12-01T08:27:41.689Z,101936.56
2022-12-01T08:30:11.991Z,101948.38
2022-12-01T08:32:42.716Z,101948.75
2022-12-01T08:35:12.236Z,101945.66
2022-12-01T08:37:41.642Z,101951.59
2022-12-01T08:40:11.514Z,101948.00
2022-12-01T08:42:40.860Z,101958.16
2022-12-01T08:45:11.596Z,101954.22
2022-12-01T08:47:42.639Z,101957.00
2022-12-01T08:50:12.350Z,101948.69
2022-12-01T08:52:41.680Z,101955.44
2022-12-01T08:55:11.441Z,101953.69
2022-12-01T08:57:40.758Z,101956.88
2022-12-01T09:00:11.075Z,101951.00
2022-12-01T09:02:40.566Z,101952.66
2022-12-01T09:05:11.579Z,101960.91
2022-12-01T09:07:41.313Z,101948.06
2022-12-01T09:10:11.542Z,101966.72
2022-12-01T09:12:41.020Z,101949.53
2022-12-01T09:15:11.040Z,101955.69
2022-12-01T09:17:40.520Z,101965.56
2022-12-01T09:20:12.505Z,101963.88
2022-12-01T09:22:41.770Z,101971.13
2022-12-01T09:25:14.892Z,101970.44
2022-12-01T09:27:44.315Z,101971.56
2022-12-01T09:30:14.631Z,101977.53
2022-12-01T09:32:43.974Z,101982.44
2022-12-01T09:35:14.799Z,101973.19
2022-12-01T09:37:44.297Z,101980.38
2022-12-01T09:40:16.766Z,101971.88
2022-12-01T09:42:48.918Z,101981.00
2022-12-01T09:45:26.625Z,101975.56
2022-12-01T09:47:59.151Z,101969.19
2022-12-01T09:50:31.590Z,101971.97
2022-12-01T09:53:05.038Z,101969.50
2022-12-01T09:55:36.924Z,101971.72
2022-12-01T09:58:06.801Z,101979.53
2022-12-01T10:00:43.110Z,101965.34
2022-12-01T10:03:23.389Z,101969.03
2022-12-01T10:06:26.229Z,101974.44
2022-12-01T10:08:56.445Z,101968.88
2022-12-01T10:11:35.997Z,101962.91
2022-12-01T10:14:05.803Z,101968.81
2022-12-01T10:16:39.769Z,101965.25
2022-12-01T10:19:15.142Z,101970.84
2022-12-01T10:22:02.300Z,101963.81
2022-12-01T10:24:46.419Z,101963.78
2022-12-01T10:27:26.661Z,101952.97
2022-12-01T10:30:03.458Z,101957.00
2022-12-01T10:32:42.188Z,101962.16
2022-12-01T10:35:16.687Z,101962.41
2022-12-01T10:37:49.004Z,101953.69
2022-12-01T10:40:19.514Z,101944.34
2022-12-01T10:42:50.389Z,101933.94
2022-12-01T10:45:23.986Z,101944.16
2022-12-01T10:48:11.578Z,101947.59
2022-12-01T10:50:41.213Z,101942.66
2022-12-01T10:53:27.901Z,101940.56
2022-12-01T10:56:06.270Z,101939.72
2022-12-01T10:58:42.102Z,101942.34
2022-12-01T11:01:19.354Z,101947.53
2022-12-01T11:03:53.927Z,101940.72
2022-12-01T11:06:25.960Z,101942.06
2022-12-01T11:08:59.170Z,101941.22
2022-12-01T11:11:33.281Z,101947.13
2022-12-01T11:14:05.500Z,101937.84
2022-12-01T11:16:41.351Z,101941.78
2022-12-01T11:19:31.024Z,101927.81
2022-12-01T11:22:01.856Z,101942.25
2022-12-01T11:24:43.286Z,101938.44
2022-12-01T11:27:18.712Z,101948.94
2022-12-01T11:29:51.159Z,101936.81
2022-12-01T11:32:25.558Z,101948.38
2022-12-01T11:34:58.560Z,101937.63
2022-12-01T11:37:32.967Z,101940.78
2022-12-01T11:40:18.211Z,101934.09
2022-12-01T11:42:51.088Z,101932.56
2022-12-01T11:45:30.427Z,101932.66
2022-12-01T11:48:03.151Z,101928.53
2022-12-01T11:50:34.833Z,101921.84
2022-12-01T11:53:05.499Z,101927.69
2022-12-01T11:55:36.351Z,101935.50
2022-12-01T11:58:05.928Z,101931.34
2022-12-01T12:00:45.257Z,101920.16
2022-12-01T12:03:25.238Z,101928.84
2022-12-01T12:06:39.527Z,101927.63
2022-12-01T12:09:44.927Z,101923.66
2022-12-01T12:12:29.061Z,101917.03
2022-12-01T12:15:07.328Z,101927.06
2022-12-01T12:18:08.647Z,101921.13
2022-12-01T12:20:50.935Z,101927.28
2022-12-01T12:23:42.147Z,101921.34
2022-12-01T12:26:17.689Z,101922.50
2022-12-01T12:29:00.887Z,101919.00
2022-12-01T12:31:41.077Z,101911.88
2022-12-01T12:34:23.092Z,101918.75
2022-12-01T12:37:02.570Z,101905.75
2022-12-01T12:39:48.105Z,101912.41
2022-12-01T12:42:26.740Z,101908.03
2022-12-01T12:45:06.586Z,101906.06
2022-12-01T12:47:51.330Z,101910.50
2022-12-01T12:50:28.771Z,101909.03
2022-12-01T12:53:03.774Z,101907.66
2022-12-01T12:55:38.728Z,101899.03
2022-12-01T12:58:15.930Z,101902.94
2022-12-01T13:00:52.590Z,101907.75
2022-12-01T13:03:33.761Z,101905.56
2022-12-01T13:06:08.374Z,101897.94
2022-12-01T13:08:48.089Z,101898.09
2022-12-01T13:11:23.664Z,101890.69
2022-12-01T13:14:00.086Z,101894.00
2022-12-01T13:16:36.502Z,101903.34
2022-12-01T13:19:12.982Z,101888.00
2022-12-01T13:21:45.497Z,101895.53
2022-12-01T13:24:22.806Z,101888.63
2022-12-01T13:26:56.763Z,101891.25
2022-12-01T13:29:38.422Z,101880.97
2022-12-01T13:32:30.561Z,101881.28
2022-12-01T13:35:01.216Z,101879.50
2022-12-01T13:37:33.270Z,101884.75
2022-12-01T13:40:22.366Z,101880.00
2022-12-01T13:43:05.470Z,101884.75
2022-12-01T13:45:39.854Z,101882.53
2022-12-01T13:48:29.268Z,101883.19
2022-12-01T13:51:01.859Z,101887.16
2022-12-01T13:53:36.203Z,101885.44
2022-12-01T13:56:23.229Z,101890.81
2022-12-01T13:58:54.579Z,101886.69
2022-12-01T14:01:46.340Z,101886.91
2022-12-01T14:04:31.684Z,101895.22
2022-12-01T14:07:38.802Z,101886.63
2022-12-01T14:10:24.420Z,101894.56
2022-12-01T14:12:56.941Z,101894.16
2022-12-01T14:15:42.824Z,101893.63
2022-12-01T14:18:45.121Z,101890.31
2022-12-01T14:21:16.069Z,101893.06
2022-12-01T14:24:02.380Z,101891.13
2022-12-01T14:26:32.360Z,101895.94
2022-12-01T14:29:26.488Z,101897.16
2022-12-01T14:32:25.606Z,101903.25
2022-12-01T14:35:01.732Z,101902.56
2022-12-01T14:37:40.851Z,101904.03
2022-12-01T14:40:18.535Z,101902.38
2022-12-01T14:43:09.710Z,101908.50
2022-12-01T14:45:44.162Z,101914.47
2022-12-01T14:48:17.201Z,101914.19
2022-12-01T14:50:53.271Z,101916.50
2022-12-01T14:53:28.238Z,101914.31
2022-12-01T14:56:01.322Z,101917.13
2022-12-01T14:58:32.438Z,101927.22
2022-12-01T15:01:07.802Z,101930.66
2022-12-01T15:03:40.990Z,101933.09
2022-12-01T15:06:11.512Z,101924.78
2022-12-01T15:08:53.171Z,101925.00
2022-12-01T15:11:26.086Z,101926.63
2022-12-01T15:13:56.441Z,101904.47
2022-12-01T15:16:27.603Z,101919.69
2022-12-01T15:18:57.069Z,101908.91
2022-12-01T15:21:28.823Z,101901.44
2022-12-01T15:24:01.903Z,101904.84
2022-12-01T15:26:33.370Z,101891.03
2022-12-01T15:29:15.072Z,101895.84
2022-12-01T15:31:46.331Z,101893.81
2022-12-01T15:34:18.760Z,101890.44
2022-12-01T15:36:49.711Z,101898.09
2022-12-01T15:39:22.810Z,101896.75
2022-12-01T15:41:54.349Z,101906.41
2022-12-01T15:44:29.279Z,101906.22
2022-12-01T15:46:58.945Z,101910.56
2022-12-01T15:49:33.080Z,101914.53
2022-12-01T15:52:08.895Z,101902.22
2022-12-01T15:54:40.649Z,101903.22
2022-12-01T15:57:09.961Z,101904.69
2022-12-01T15:59:42.103Z,101901.94
2022-12-01T16:02:27.192Z,101906.47
2022-12-01T16:05:05.788Z,101906.34
2022-12-01T16:08:11.595Z,101911.44
2022-12-01T16:10:32.732Z,101907.78
2022-12-01T16:13:54.030Z,101904.50
2022-12-01T16:16:32.407Z,101906.06
2022-12-01T16:19:04.190Z,101910.13
2022-12-01T16:21:46.718Z,101896.41
2022-12-01T16:24:19.369Z,101909.47
2022-12-01T16:26:53.791Z,101901.63
2022-12-01T16:29:24.481Z,101897.34
2022-12-01T16:34:46.589Z,101912.09
2022-12-01T16:37:17.027Z,101903.03
2022-12-01T16:39:46.534Z,101914.81
2022-12-01T16:42:20.793Z,101905.22
2022-12-01T16:44:51.455Z,101906.31
2022-12-01T16:47:23.086Z,101903.69
2022-12-01T16:49:53.380Z,101910.84
2022-12-01T16:52:43.667Z,101915.78
2022-12-01T16:55:37.755Z,101916.31
2022-12-01T16:58:08.573Z,101910.69
2022-12-01T17:00:37.886Z,101913.94
2022-12-01T17:03:08.414Z,101920.66
2022-12-01T17:05:38.678Z,101916.25
2022-12-01T17:08:08.150Z,101915.75
2022-12-01T17:10:40.891Z,101915.09
2022-12-01T17:13:12.284Z,101917.03
2022-12-01T17:15:42.601Z,101907.69
2022-12-01T17:18:12.851Z,101911.28
2022-12-01T17:20:42.368Z,101917.78
2022-12-01T17:23:12.627Z,101912.81
2022-12-01T17:25:42.259Z,101922.25
2022-12-01T17:28:12.977Z,101923.47
2022-12-01T17:30:43.147Z,101926.88
2022-12-01T17:33:12.473Z,101927.44
2022-12-01T17:35:41.800Z,101921.84
2022-12-01T17:38:11.562Z,101929.34
2022-12-01T17:40:40.882Z,101927.88
2022-12-01T17:43:10.605Z,101928.50
2022-12-01T17:45:42.215Z,101933.91
2022-12-01T17:48:11.769Z,101934.34
2022-12-01T17:50:41.052Z,101933.03
2022-12-01T17:53:10.328Z,101935.19
2022-12-01T17:55:40.722Z,101935.63
2022-12-01T17:58:10.210Z,101934.34
2022-12-01T18:00:41.051Z,101936.25
2022-12-01T18:03:10.560Z,101927.88
2022-12-01T18:05:40.432Z,101938.63
2022-12-01T18:08:10.033Z,101934.88
2022-12-01T18:10:39.428Z,101936.72
2022-12-01T18:13:09.110Z,101938.63
2022-12-01T18:15:41.783Z,101935.19
2022-12-01T18:18:11.263Z,101934.97
2022-12-01T18:20:42.782Z,101938.44
2022-12-01T18:23:12.889Z,101940.13
2022-12-01T18:25:42.262Z,101945.75
2022-12-01T18:28:11.680Z,101941.41
2022-12-01T18:30:42.621Z,101936.94
2022-12-01T18:33:13.470Z,101935.94
2022-12-01T18:35:44.827Z,101937.56
2022-12-01T18:38:14.730Z,101942.84
2022-12-01T18:40:44.067Z,101938.44
2022-12-01T18:43:13.514Z,101938.44
2022-12-01T18:45:44.347Z,101936.94
2022-12-01T18:48:13.659Z,101938.84
2022-12-01T18:50:43.001Z,101937.88
2022-12-01T18:53:12.498Z,101941.63
2022-12-01T18:55:41.926Z,101943.16
2022-12-01T18:58:11.530Z,101935.81
2022-12-01T19:00:41.001Z,101942.09
2022-12-01T19:03:12.100Z,101936.59
2022-12-01T19:05:42.263Z,101935.63
2022-12-01T19:08:12.740Z,101931.44
2022-12-01T19:10:43.420Z,101932.84
2022-12-01T19:13:13.874Z,101935.75
2022-12-01T19:15:44.982Z,101929.38
2022-12-01T19:18:16.948Z,101935.53
2022-12-01T19:20:48.098Z,101931.13
2022-12-01T19:23:19.660Z,101925.63
2022-12-01T19:25:50.126Z,101926.59
2022-12-01T19:28:22.981Z,101930.34
2022-12-01T19:30:54.518Z,101930.66
2022-12-01T19:33:26.475Z,101927.66
2022-12-01T19:35:56.892Z,101930.00
2022-12-01T19:38:28.789Z,101926.59
2022-12-01T19:40:59.144Z,101928.72
2022-12-01T19:43:29.745Z,101918.81
2022-12-01T19:46:00.402Z,101929.28
2022-12-01T19:48:32.221Z,101931.13
2022-12-01T19:51:02.129Z,101923.34
2022-12-01T19:53:33.869Z,101927.09
2022-12-01T19:56:05.279Z,101930.44
2022-12-01T19:58:35.498Z,101941.31
2022-12-01T20:01:06.635Z,101932.19
2022-12-01T20:03:41.349Z,101929.91
2022-12-01T20:06:14.791Z,101931.09
2022-12-01T20:08:45.391Z,101921.19
2022-12-01T20:11:16.270Z,101916.47
2022-12-01T20:13:50.652Z,101926.78
2022-12-01T20:16:23.967Z,101928.81
2022-12-01T20:18:56.509Z,101914.31
2022-12-01T20:21:28.700Z,101912.91
2022-12-01T20:24:01.061Z,101922.25
2022-12-01T20:26:35.057Z,101917.72
2022-12-01T20:29:08.145Z,101903.75
2022-12-01T20:31:40.608Z,101913.84
2022-12-01T20:34:16.570Z,101915.16
2022-12-01T20:36:47.073Z,101917.94
2022-12-01T20:39:18.100Z,101913.31
2022-12-01T20:41:49.736Z,101906.22
2022-12-01T20:44:20.820Z,101898.13
2022-12-01T20:46:51.152Z,101912.09
2022-12-01T20:49:23.201Z,101904.81
2022-12-01T20:51:53.850Z,101921.81
2022-12-01T20:54:28.883Z,101914.50
2022-12-01T20:57:00.249Z,101905.66
2022-12-01T20:59:30.211Z,101910.41
2022-12-01T21:01:59.624Z,101910.41
2022-12-01T21:04:30.513Z,101897.03
2022-12-01T21:06:59.905Z,101918.03
2022-12-01T21:09:29.334Z,101910.47
2022-12-01T21:12:18.104Z,101912.63
2022-12-01T21:14:54.772Z,101904.03
2022-12-01T21:17:34.461Z,101898.25
2022-12-01T21:20:18.261Z,101888.53
2022-12-01T21:22:47.781Z,101905.53
2022-12-01T21:25:20.910Z,101894.66
2022-12-01T21:27:51.142Z,101901.13
2022-12-01T21:30:22.379Z,101885.19
2022-12-01T21:32:51.820Z,101907.06
2022-12-01T21:35:24.997Z,101889.28
2022-12-01T21:38:01.793Z,101891.84
2022-12-01T21:40:31.911Z,101885.97
2022-12-01T21:43:13.910Z,101895.53
2022-12-01T21:45:43.268Z,101902.84
2022-12-01T21:48:17.221Z,101886.72
2022-12-01T21:50:52.360Z,101886.41
2022-12-01T21:53:26.257Z,101880.81
2022-12-01T21:55:58.005Z,101880.91
2022-12-01T21:58:30.221Z,101888.25
2022-12-01T22:01:01.028Z,101896.84
2022-12-01T22:03:33.173Z,101890.06
2022-12-01T22:06:29.184Z,101888.88
2022-12-01T22:09:02.470Z,101875.09
2022-12-01T22:11:32.927Z,101876.09
2022-12-01T22:14:12.618Z,101884.25
2022-12-01T22:16:44.060Z,101886.22
2022-12-01T22:19:26.469Z,101880.69
2022-12-01T22:22:01.881Z,101875.53
2022-12-01T22:24:38.631Z,101869.94
2022-12-01T22:27:20.388Z,101880.50
2022-12-01T22:29:52.391Z,101877.69
2022-12-01T22:32:37.502Z,101869.06
2022-12-01T22:35:36.208Z,101874.81
2022-12-01T22:38:21.748Z,101874.03
2022-12-01T22:40:58.236Z,101871.56
2022-12-01T22:43:43.864Z,101865.41
2022-12-01T22:46:25.173Z,101861.75
2022-12-01T22:48:56.241Z,101862.63
2022-12-01T22:51:37.595Z,101863.16
2022-12-01T22:54:39.129Z,101866.50
2022-12-01T22:57:25.558Z,101866.72
2022-12-01T22:59:55.460Z,101862.19
2022-12-01T23:02:28.602Z,101859.06
2022-12-01T23:05:00.388Z,101866.94
2022-12-01T23:07:32.114Z,101865.19
2022-12-01T23:10:09.389Z,101864.34
2022-12-01T23:12:39.069Z,101856.13
2022-12-01T23:15:31.157Z,101854.53
2022-12-01T23:18:07.011Z,101859.38
2022-12-01T23:20:36.681Z,101856.91
2022-12-01T23:23:09.786Z,101853.56
2022-12-01T23:25:41.891Z,101853.69
2022-12-01T23:28:12.776Z,101846.81
2022-12-01T23:30:44.323Z,101852.06
2022-12-01T23:33:20.115Z,101845.28
2022-12-01T23:35:54.839Z,101850.56
2022-12-01T23:38:27.490Z,101842.59
2022-12-01T23:41:01.053Z,101844.22
2022-12-01T23:43:33.309Z,101831.38
2022-12-01T23:46:06.509Z,101827.09
2022-12-01T23:48:39.158Z,101831.97
2022-12-01T23:51:16.568Z,101831.41
2022-12-01T23:53:46.165Z,101812.91
2022-12-01T23:56:20.502Z,101818.72
2022-12-01T23:58:50.639Z,101806.22
